Portada
METAR-TAF:

METAR-TAF

Aeroports :

Aeroport Henrique de Carvalho

Saurimo, Angola

latitud: 9-41-20S, longitud: 20-25-55E, altitud: 1092 m

Observació

L'informe es va fer fa 8 hores i 55 minuts, a les 15:00 UTC
Vent 5 kt del Est/Sud-Est
Temperatura 31°C
Humitat 29%
Pressió 1016 hPa
Visibilitat 10 km o més
sense núvols per sota de 1500 mi sense presència de cumulonimbus.

METAR: FNSA 291500Z 12005KT CAVOK 31/11 Q1016

Hora: 00:55 (23:55 UTC)

Pronòstic

L'informe es va fer fa 12 hores i 55 minuts, a les 11:00 UTC
Pronòstic vàlid del 29 a les 12 UTC al 29 a les 24 UTC
Vent 5 kt del Est/Sud-Est
Visibilitat 10 km o més
Escasses núvols a una alçada de 2200 ft
Evolucionant progressivament
l' 29 a les 20 UTC al 29 a les 22 UTC
Vent 6 kt del Sud/Sud-Est
Visibilitat: 9000 m

TAF: FNSA 291100Z 2912/2924 12005KT 9999 FEW022 BECMG 2920/2922 16006KT 9000 NSC

Observacions i pronòstics meteorològics de més de 4000 aeroports (METAR i TAF).

Les estacions disponibles són els punts grocs i vermells al mapa.

Posi el ratolí al punt desitjat per veure el nom de l'estació.

Feu clic per veure les observacions i els pronòstics meteorològics.

Per canviar el mapa: feu clic els botons verds amb una creu de color negre per apropar; al botó verd amb un guió per allunyar la imatge; o en les fletxes verdes per a mapes adjacents.


METAR-TAF: